sensor_id;sensor_type;location;lat;lon;timestamp;P1;durP1;ratioP1;P2;durP2;ratioP2
58071;SDS011;60383;46.626;18.866;2022-12-13T00:01:28;11.40;;;6.80;;
58071;SDS011;60383;46.626;18.866;2022-12-13T00:03:55;15.48;;;7.72;;
58071;SDS011;60383;46.626;18.866;2022-12-13T00:06:21;14.05;;;7.50;;
58071;SDS011;60383;46.626;18.866;2022-12-13T00:08:47;12.82;;;7.20;;
58071;SDS011;60383;46.626;18.866;2022-12-13T00:11:13;12.38;;;7.32;;
58071;SDS011;60383;46.626;18.866;2022-12-13T00:13:40;13.77;;;7.47;;
58071;SDS011;60383;46.626;18.866;2022-12-13T00:16:07;11.30;;;7.10;;
58071;SDS011;60383;46.626;18.866;2022-12-13T00:18:35;14.23;;;8.00;;
58071;SDS011;60383;46.626;18.866;2022-12-13T00:21:04;19.80;;;8.95;;
58071;SDS011;60383;46.626;18.866;2022-12-13T00:23:30;15.48;;;7.82;;
58071;SDS011;60383;46.626;18.866;2022-12-13T00:26:01;14.23;;;7.65;;
58071;SDS011;60383;46.626;18.866;2022-12-13T00:30:55;14.65;;;7.72;;
58071;SDS011;60383;46.626;18.866;2022-12-13T00:33:22;13.77;;;7.38;;
58071;SDS011;60383;46.626;18.866;2022-12-13T00:35:47;11.52;;;6.78;;
58071;SDS011;60383;46.626;18.866;2022-12-13T00:38:12;13.55;;;7.38;;
58071;SDS011;60383;46.626;18.866;2022-12-13T00:40:38;11.43;;;6.97;;
58071;SDS011;60383;46.626;18.866;2022-12-13T00:43:03;14.77;;;8.25;;
58071;SDS011;60383;46.626;18.866;2022-12-13T00:45:29;15.32;;;8.18;;
58071;SDS011;60383;46.626;18.866;2022-12-13T00:47:54;12.60;;;6.93;;
58071;SDS011;60383;46.626;18.866;2022-12-13T00:50:19;13.20;;;7.53;;
58071;SDS011;60383;46.626;18.866;2022-12-13T00:52:45;12.77;;;6.95;;
58071;SDS011;60383;46.626;18.866;2022-12-13T00:55:10;15.95;;;8.02;;
58071;SDS011;60383;46.626;18.866;2022-12-13T00:57:36;15.45;;;8.13;;
58071;SDS011;60383;46.626;18.866;2022-12-13T01:00:02;13.43;;;7.47;;
58071;SDS011;60383;46.626;18.866;2022-12-13T01:02:28;14.73;;;7.95;;
58071;SDS011;60383;46.626;18.866;2022-12-13T01:04:54;13.68;;;7.25;;
58071;SDS011;60383;46.626;18.866;2022-12-13T01:07:19;15.07;;;7.15;;
58071;SDS011;60383;46.626;18.866;2022-12-13T01:09:44;11.52;;;7.05;;
58071;SDS011;60383;46.626;18.866;2022-12-13T01:12:10;13.95;;;8.10;;
58071;SDS011;60383;46.626;18.866;2022-12-13T01:14:36;16.63;;;9.82;;
58071;SDS011;60383;46.626;18.866;2022-12-13T01:17:04;20.27;;;10.52;;
58071;SDS011;60383;46.626;18.866;2022-12-13T01:19:30;16.90;;;9.45;;
58071;SDS011;60383;46.626;18.866;2022-12-13T01:21:57;17.90;;;10.07;;
58071;SDS011;60383;46.626;18.866;2022-12-13T01:24:24;18.30;;;9.70;;
58071;SDS011;60383;46.626;18.866;2022-12-13T01:26:50;15.68;;;8.80;;
58071;SDS011;60383;46.626;18.866;2022-12-13T01:29:17;16.30;;;8.30;;
58071;SDS011;60383;46.626;18.866;2022-12-13T01:31:43;15.32;;;8.07;;
58071;SDS011;60383;46.626;18.866;2022-12-13T01:34:09;14.57;;;8.68;;
58071;SDS011;60383;46.626;18.866;2022-12-13T01:36:36;13.48;;;7.47;;
58071;SDS011;60383;46.626;18.866;2022-12-13T01:39:02;15.73;;;7.80;;
58071;SDS011;60383;46.626;18.866;2022-12-13T01:41:28;12.75;;;7.40;;
58071;SDS011;60383;46.626;18.866;2022-12-13T01:43:57;13.55;;;7.88;;
58071;SDS011;60383;46.626;18.866;2022-12-13T01:46:27;14.50;;;7.82;;
58071;SDS011;60383;46.626;18.866;2022-12-13T01:49:01;16.42;;;8.20;;
58071;SDS011;60383;46.626;18.866;2022-12-13T01:51:52;13.45;;;7.07;;
58071;SDS011;60383;46.626;18.866;2022-12-13T01:54:22;14.30;;;7.32;;
58071;SDS011;60383;46.626;18.866;2022-12-13T01:56:54;12.93;;;7.25;;
58071;SDS011;60383;46.626;18.866;2022-12-13T01:59:21;13.02;;;7.28;;
58071;SDS011;60383;46.626;18.866;2022-12-13T02:01:47;12.05;;;6.72;;
58071;SDS011;60383;46.626;18.866;2022-12-13T02:04:16;12.10;;;7.18;;
58071;SDS011;60383;46.626;18.866;2022-12-13T02:06:46;12.55;;;7.53;;
58071;SDS011;60383;46.626;18.866;2022-12-13T02:09:12;11.77;;;7.15;;
58071;SDS011;60383;46.626;18.866;2022-12-13T02:11:38;13.35;;;7.10;;
58071;SDS011;60383;46.626;18.866;2022-12-13T02:14:06;10.25;;;6.82;;
58071;SDS011;60383;46.626;18.866;2022-12-13T02:32:29;12.60;;;7.28;;
58071;SDS011;60383;46.626;18.866;2022-12-13T02:35:09;13.13;;;7.65;;
58071;SDS011;60383;46.626;18.866;2022-12-13T02:40:47;13.93;;;7.47;;
58071;SDS011;60383;46.626;18.866;2022-12-13T02:43:22;14.82;;;7.03;;
58071;SDS011;60383;46.626;18.866;2022-12-13T02:45:51;11.07;;;7.10;;
58071;SDS011;60383;46.626;18.866;2022-12-13T02:48:23;11.25;;;7.07;;
58071;SDS011;60383;46.626;18.866;2022-12-13T02:50:52;11.20;;;7.22;;
58071;SDS011;60383;46.626;18.866;2022-12-13T02:53:20;13.25;;;8.35;;
58071;SDS011;60383;46.626;18.866;2022-12-13T02:55:47;14.10;;;8.20;;
58071;SDS011;60383;46.626;18.866;2022-12-13T02:58:13;13.25;;;7.13;;
58071;SDS011;60383;46.626;18.866;2022-12-13T03:15:04;15.38;;;8.93;;
58071;SDS011;60383;46.626;18.866;2022-12-13T03:17:42;16.85;;;8.05;;
58071;SDS011;60383;46.626;18.866;2022-12-13T03:20:25;14.05;;;7.90;;
58071;SDS011;60383;46.626;18.866;2022-12-13T03:22:52;14.43;;;7.40;;
58071;SDS011;60383;46.626;18.866;2022-12-13T03:25:19;12.10;;;7.40;;
58071;SDS011;60383;46.626;18.866;2022-12-13T03:27:46;16.40;;;8.18;;
58071;SDS011;60383;46.626;18.866;2022-12-13T03:30:12;13.85;;;7.93;;
58071;SDS011;60383;46.626;18.866;2022-12-13T03:32:38;15.77;;;8.27;;
58071;SDS011;60383;46.626;18.866;2022-12-13T03:35:03;14.57;;;8.20;;
58071;SDS011;60383;46.626;18.866;2022-12-13T03:37:29;17.65;;;9.30;;
58071;SDS011;60383;46.626;18.866;2022-12-13T03:39:55;17.50;;;9.73;;
58071;SDS011;60383;46.626;18.866;2022-12-13T03:42:21;17.48;;;8.80;;
58071;SDS011;60383;46.626;18.866;2022-12-13T03:44:47;14.98;;;9.05;;
58071;SDS011;60383;46.626;18.866;2022-12-13T03:47:12;16.30;;;9.30;;
58071;SDS011;60383;46.626;18.866;2022-12-13T03:49:37;16.23;;;8.85;;
58071;SDS011;60383;46.626;18.866;2022-12-13T03:52:03;16.02;;;8.65;;
58071;SDS011;60383;46.626;18.866;2022-12-13T03:54:28;13.20;;;7.53;;
58071;SDS011;60383;46.626;18.866;2022-12-13T03:56:54;15.82;;;9.07;;
58071;SDS011;60383;46.626;18.866;2022-12-13T03:59:19;14.57;;;8.52;;
58071;SDS011;60383;46.626;18.866;2022-12-13T04:01:45;18.40;;;9.82;;
58071;SDS011;60383;46.626;18.866;2022-12-13T04:04:10;16.55;;;9.40;;
58071;SDS011;60383;46.626;18.866;2022-12-13T04:06:35;18.13;;;10.00;;
58071;SDS011;60383;46.626;18.866;2022-12-13T04:09:01;19.58;;;10.48;;
58071;SDS011;60383;46.626;18.866;2022-12-13T04:11:27;18.17;;;10.40;;
58071;SDS011;60383;46.626;18.866;2022-12-13T04:14:11;19.15;;;9.88;;
58071;SDS011;60383;46.626;18.866;2022-12-13T04:16:36;19.05;;;10.93;;
58071;SDS011;60383;46.626;18.866;2022-12-13T04:19:03;19.75;;;12.05;;
58071;SDS011;60383;46.626;18.866;2022-12-13T04:21:28;19.30;;;10.43;;
58071;SDS011;60383;46.626;18.866;2022-12-13T04:23:54;17.40;;;10.43;;
58071;SDS011;60383;46.626;18.866;2022-12-13T04:26:19;15.05;;;9.05;;
58071;SDS011;60383;46.626;18.866;2022-12-13T04:28:45;18.02;;;10.15;;
58071;SDS011;60383;46.626;18.866;2022-12-13T04:31:10;20.80;;;10.50;;
58071;SDS011;60383;46.626;18.866;2022-12-13T04:33:36;21.63;;;11.48;;
58071;SDS011;60383;46.626;18.866;2022-12-13T04:36:01;23.17;;;12.15;;
58071;SDS011;60383;46.626;18.866;2022-12-13T04:38:27;24.63;;;14.15;;
58071;SDS011;60383;46.626;18.866;2022-12-13T04:40:53;26.63;;;14.95;;
58071;SDS011;60383;46.626;18.866;2022-12-13T04:43:27;23.38;;;12.55;;
58071;SDS011;60383;46.626;18.866;2022-12-13T04:45:53;22.40;;;12.60;;
58071;SDS011;60383;46.626;18.866;2022-12-13T04:48:19;20.70;;;12.35;;
58071;SDS011;60383;46.626;18.866;2022-12-13T04:50:45;21.50;;;12.75;;
58071;SDS011;60383;46.626;18.866;2022-12-13T04:53:13;21.75;;;12.82;;
58071;SDS011;60383;46.626;18.866;2022-12-13T04:55:40;25.23;;;12.70;;
58071;SDS011;60383;46.626;18.866;2022-12-13T04:58:05;19.70;;;11.98;;
58071;SDS011;60383;46.626;18.866;2022-12-13T05:00:31;25.58;;;13.30;;
58071;SDS011;60383;46.626;18.866;2022-12-13T05:02:56;24.40;;;13.45;;
58071;SDS011;60383;46.626;18.866;2022-12-13T05:05:21;26.80;;;14.30;;
58071;SDS011;60383;46.626;18.866;2022-12-13T05:07:47;23.95;;;13.95;;
58071;SDS011;60383;46.626;18.866;2022-12-13T05:10:12;27.67;;;15.70;;
58071;SDS011;60383;46.626;18.866;2022-12-13T05:12:38;24.55;;;14.68;;
58071;SDS011;60383;46.626;18.866;2022-12-13T05:15:04;26.77;;;14.90;;
58071;SDS011;60383;46.626;18.866;2022-12-13T05:17:30;36.25;;;18.27;;
58071;SDS011;60383;46.626;18.866;2022-12-13T05:19:55;34.15;;;17.75;;
58071;SDS011;60383;46.626;18.866;2022-12-13T05:22:21;32.60;;;16.10;;
58071;SDS011;60383;46.626;18.866;2022-12-13T05:24:46;30.25;;;15.65;;
58071;SDS011;60383;46.626;18.866;2022-12-13T05:27:12;22.35;;;13.25;;
58071;SDS011;60383;46.626;18.866;2022-12-13T05:29:37;22.40;;;12.73;;
58071;SDS011;60383;46.626;18.866;2022-12-13T05:32:03;17.98;;;10.85;;
58071;SDS011;60383;46.626;18.866;2022-12-13T05:34:28;20.20;;;10.75;;
58071;SDS011;60383;46.626;18.866;2022-12-13T05:36:54;20.52;;;13.73;;
58071;SDS011;60383;46.626;18.866;2022-12-13T05:39:19;14.55;;;9.80;;
58071;SDS011;60383;46.626;18.866;2022-12-13T05:41:45;15.00;;;8.98;;
58071;SDS011;60383;46.626;18.866;2022-12-13T05:44:11;17.13;;;9.05;;
58071;SDS011;60383;46.626;18.866;2022-12-13T05:46:37;17.02;;;9.80;;
58071;SDS011;60383;46.626;18.866;2022-12-13T05:49:03;19.83;;;10.93;;
58071;SDS011;60383;46.626;18.866;2022-12-13T05:51:28;22.13;;;11.95;;
58071;SDS011;60383;46.626;18.866;2022-12-13T05:53:54;20.45;;;11.25;;
58071;SDS011;60383;46.626;18.866;2022-12-13T05:56:19;18.40;;;11.55;;
58071;SDS011;60383;46.626;18.866;2022-12-13T05:58:45;18.67;;;10.10;;
58071;SDS011;60383;46.626;18.866;2022-12-13T06:01:11;19.13;;;9.38;;
58071;SDS011;60383;46.626;18.866;2022-12-13T06:03:38;18.90;;;10.20;;
58071;SDS011;60383;46.626;18.866;2022-12-13T06:06:05;17.67;;;10.30;;
58071;SDS011;60383;46.626;18.866;2022-12-13T06:08:32;21.70;;;11.10;;
58071;SDS011;60383;46.626;18.866;2022-12-13T06:10:59;19.75;;;11.43;;
58071;SDS011;60383;46.626;18.866;2022-12-13T06:13:25;18.33;;;10.40;;
58071;SDS011;60383;46.626;18.866;2022-12-13T06:15:52;17.27;;;10.77;;
58071;SDS011;60383;46.626;18.866;2022-12-13T06:18:18;19.00;;;11.57;;
58071;SDS011;60383;46.626;18.866;2022-12-13T06:20:43;21.08;;;13.02;;
58071;SDS011;60383;46.626;18.866;2022-12-13T06:23:10;25.00;;;14.10;;
58071;SDS011;60383;46.626;18.866;2022-12-13T06:25:36;25.40;;;13.45;;
58071;SDS011;60383;46.626;18.866;2022-12-13T06:28:01;26.40;;;14.23;;
58071;SDS011;60383;46.626;18.866;2022-12-13T06:30:27;24.80;;;14.07;;
58071;SDS011;60383;46.626;18.866;2022-12-13T06:32:54;35.75;;;19.77;;
58071;SDS011;60383;46.626;18.866;2022-12-13T06:35:19;41.08;;;23.17;;
58071;SDS011;60383;46.626;18.866;2022-12-13T06:37:45;41.05;;;21.40;;
58071;SDS011;60383;46.626;18.866;2022-12-13T06:40:10;36.78;;;19.70;;
58071;SDS011;60383;46.626;18.866;2022-12-13T06:42:36;33.38;;;17.83;;
58071;SDS011;60383;46.626;18.866;2022-12-13T06:45:01;30.27;;;17.50;;
58071;SDS011;60383;46.626;18.866;2022-12-13T06:47:27;27.73;;;16.65;;
58071;SDS011;60383;46.626;18.866;2022-12-13T06:49:52;26.02;;;15.52;;
58071;SDS011;60383;46.626;18.866;2022-12-13T06:52:18;23.40;;;14.43;;
58071;SDS011;60383;46.626;18.866;2022-12-13T06:54:43;28.25;;;15.43;;
58071;SDS011;60383;46.626;18.866;2022-12-13T06:57:09;28.80;;;16.33;;
58071;SDS011;60383;46.626;18.866;2022-12-13T06:59:36;26.20;;;14.73;;
58071;SDS011;60383;46.626;18.866;2022-12-13T07:02:01;27.02;;;14.38;;
58071;SDS011;60383;46.626;18.866;2022-12-13T07:04:28;22.13;;;12.55;;
58071;SDS011;60383;46.626;18.866;2022-12-13T07:06:53;19.27;;;12.77;;
58071;SDS011;60383;46.626;18.866;2022-12-13T07:09:19;19.05;;;11.95;;
58071;SDS011;60383;46.626;18.866;2022-12-13T07:11:44;25.77;;;14.80;;
58071;SDS011;60383;46.626;18.866;2022-12-13T07:14:09;40.05;;;21.45;;
58071;SDS011;60383;46.626;18.866;2022-12-13T07:16:35;47.83;;;23.77;;
58071;SDS011;60383;46.626;18.866;2022-12-13T07:19:00;42.00;;;22.52;;
58071;SDS011;60383;46.626;18.866;2022-12-13T07:21:27;37.70;;;19.33;;
58071;SDS011;60383;46.626;18.866;2022-12-13T07:23:53;41.00;;;22.92;;
58071;SDS011;60383;46.626;18.866;2022-12-13T07:26:19;40.47;;;23.27;;
58071;SDS011;60383;46.626;18.866;2022-12-13T07:28:44;31.52;;;20.15;;
58071;SDS011;60383;46.626;18.866;2022-12-13T07:31:11;26.60;;;16.10;;
58071;SDS011;60383;46.626;18.866;2022-12-13T07:33:37;20.52;;;12.38;;
58071;SDS011;60383;46.626;18.866;2022-12-13T07:36:04;25.27;;;13.20;;
58071;SDS011;60383;46.626;18.866;2022-12-13T07:38:33;25.42;;;16.15;;
58071;SDS011;60383;46.626;18.866;2022-12-13T07:40:59;25.65;;;14.65;;
58071;SDS011;60383;46.626;18.866;2022-12-13T07:43:25;18.77;;;13.82;;
58071;SDS011;60383;46.626;18.866;2022-12-13T07:45:51;17.45;;;13.40;;
58071;SDS011;60383;46.626;18.866;2022-12-13T07:48:17;18.63;;;12.55;;
58071;SDS011;60383;46.626;18.866;2022-12-13T07:50:43;20.08;;;11.73;;
58071;SDS011;60383;46.626;18.866;2022-12-13T07:53:09;19.10;;;12.13;;
58071;SDS011;60383;46.626;18.866;2022-12-13T07:55:35;25.42;;;13.45;;
58071;SDS011;60383;46.626;18.866;2022-12-13T07:58:02;21.27;;;13.90;;
58071;SDS011;60383;46.626;18.866;2022-12-13T08:00:29;21.02;;;14.15;;
58071;SDS011;60383;46.626;18.866;2022-12-13T08:02:55;17.35;;;11.68;;
58071;SDS011;60383;46.626;18.866;2022-12-13T08:05:20;19.60;;;12.48;;
58071;SDS011;60383;46.626;18.866;2022-12-13T08:07:46;15.55;;;10.65;;
58071;SDS011;60383;46.626;18.866;2022-12-13T08:10:11;18.45;;;12.35;;
58071;SDS011;60383;46.626;18.866;2022-12-13T08:12:36;22.45;;;14.18;;
58071;SDS011;60383;46.626;18.866;2022-12-13T08:15:02;17.67;;;12.13;;
58071;SDS011;60383;46.626;18.866;2022-12-13T08:17:28;21.15;;;13.15;;
58071;SDS011;60383;46.626;18.866;2022-12-13T08:19:53;21.75;;;14.38;;
58071;SDS011;60383;46.626;18.866;2022-12-13T08:22:18;21.65;;;13.07;;
58071;SDS011;60383;46.626;18.866;2022-12-13T08:24:44;24.10;;;14.38;;
58071;SDS011;60383;46.626;18.866;2022-12-13T08:27:10;19.33;;;13.13;;
58071;SDS011;60383;46.626;18.866;2022-12-13T08:29:36;17.90;;;11.23;;
58071;SDS011;60383;46.626;18.866;2022-12-13T08:32:05;16.38;;;11.05;;
58071;SDS011;60383;46.626;18.866;2022-12-13T08:34:33;20.15;;;12.50;;
58071;SDS011;60383;46.626;18.866;2022-12-13T08:36:58;18.02;;;12.73;;
58071;SDS011;60383;46.626;18.866;2022-12-13T08:39:24;24.02;;;13.30;;
58071;SDS011;60383;46.626;18.866;2022-12-13T08:41:50;20.77;;;12.15;;
58071;SDS011;60383;46.626;18.866;2022-12-13T08:44:15;17.75;;;11.65;;
58071;SDS011;60383;46.626;18.866;2022-12-13T08:46:40;18.52;;;12.25;;
58071;SDS011;60383;46.626;18.866;2022-12-13T08:49:06;15.23;;;10.07;;
58071;SDS011;60383;46.626;18.866;2022-12-13T08:51:31;15.65;;;9.90;;
58071;SDS011;60383;46.626;18.866;2022-12-13T08:53:57;13.98;;;9.13;;
58071;SDS011;60383;46.626;18.866;2022-12-13T08:56:22;15.00;;;9.57;;
58071;SDS011;60383;46.626;18.866;2022-12-13T08:58:48;12.18;;;8.52;;
58071;SDS011;60383;46.626;18.866;2022-12-13T09:01:15;15.52;;;9.40;;
58071;SDS011;60383;46.626;18.866;2022-12-13T09:03:41;12.52;;;8.90;;
58071;SDS011;60383;46.626;18.866;2022-12-13T09:08:34;12.50;;;8.68;;
58071;SDS011;60383;46.626;18.866;2022-12-13T09:11:01;11.00;;;7.68;;
58071;SDS011;60383;46.626;18.866;2022-12-13T09:13:30;10.57;;;8.43;;
58071;SDS011;60383;46.626;18.866;2022-12-13T09:15:58;11.65;;;7.93;;
58071;SDS011;60383;46.626;18.866;2022-12-13T09:18:27;11.52;;;8.32;;
58071;SDS011;60383;46.626;18.866;2022-12-13T09:20:53;12.80;;;7.70;;
58071;SDS011;60383;46.626;18.866;2022-12-13T09:23:18;12.07;;;8.07;;
58071;SDS011;60383;46.626;18.866;2022-12-13T09:25:43;11.18;;;8.30;;
58071;SDS011;60383;46.626;18.866;2022-12-13T09:28:09;12.15;;;8.43;;
58071;SDS011;60383;46.626;18.866;2022-12-13T09:30:35;13.38;;;9.05;;
58071;SDS011;60383;46.626;18.866;2022-12-13T09:33:02;11.10;;;7.97;;
58071;SDS011;60383;46.626;18.866;2022-12-13T09:35:27;13.00;;;8.25;;
58071;SDS011;60383;46.626;18.866;2022-12-13T09:37:54;11.68;;;8.40;;
58071;SDS011;60383;46.626;18.866;2022-12-13T09:40:21;12.57;;;8.40;;
58071;SDS011;60383;46.626;18.866;2022-12-13T09:42:52;10.65;;;7.55;;
58071;SDS011;60383;46.626;18.866;2022-12-13T09:45:20;10.93;;;8.00;;
58071;SDS011;60383;46.626;18.866;2022-12-13T09:47:46;10.23;;;7.60;;
58071;SDS011;60383;46.626;18.866;2022-12-13T09:50:17;13.35;;;9.07;;
58071;SDS011;60383;46.626;18.866;2022-12-13T09:52:50;10.48;;;7.95;;
58071;SDS011;60383;46.626;18.866;2022-12-13T09:55:27;11.30;;;8.02;;
58071;SDS011;60383;46.626;18.866;2022-12-13T09:57:56;12.25;;;8.35;;
58071;SDS011;60383;46.626;18.866;2022-12-13T10:00:23;10.38;;;7.40;;
58071;SDS011;60383;46.626;18.866;2022-12-13T10:02:54;11.98;;;7.63;;
58071;SDS011;60383;46.626;18.866;2022-12-13T10:05:25;11.05;;;7.78;;
58071;SDS011;60383;46.626;18.866;2022-12-13T10:07:54;10.40;;;7.32;;
58071;SDS011;60383;46.626;18.866;2022-12-13T10:10:23;10.75;;;6.80;;
58071;SDS011;60383;46.626;18.866;2022-12-13T10:12:51;9.38;;;6.82;;
58071;SDS011;60383;46.626;18.866;2022-12-13T10:15:22;7.50;;;5.93;;
58071;SDS011;60383;46.626;18.866;2022-12-13T10:17:49;7.40;;;5.40;;
58071;SDS011;60383;46.626;18.866;2022-12-13T10:20:16;8.15;;;5.95;;
58071;SDS011;60383;46.626;18.866;2022-12-13T10:22:44;7.18;;;5.10;;
58071;SDS011;60383;46.626;18.866;2022-12-13T10:25:10;8.77;;;5.35;;
58071;SDS011;60383;46.626;18.866;2022-12-13T10:27:43;8.07;;;5.85;;
58071;SDS011;60383;46.626;18.866;2022-12-13T10:30:17;9.82;;;6.25;;
58071;SDS011;60383;46.626;18.866;2022-12-13T10:32:59;8.57;;;5.93;;
58071;SDS011;60383;46.626;18.866;2022-12-13T10:37:59;11.57;;;6.05;;
58071;SDS011;60383;46.626;18.866;2022-12-13T10:40:34;9.18;;;6.35;;
58071;SDS011;60383;46.626;18.866;2022-12-13T10:43:05;8.63;;;6.10;;
58071;SDS011;60383;46.626;18.866;2022-12-13T10:45:39;8.10;;;5.70;;
58071;SDS011;60383;46.626;18.866;2022-12-13T10:48:10;10.25;;;6.93;;
58071;SDS011;60383;46.626;18.866;2022-12-13T10:53:22;8.20;;;5.80;;
58071;SDS011;60383;46.626;18.866;2022-12-13T10:58:20;8.77;;;5.63;;
58071;SDS011;60383;46.626;18.866;2022-12-13T11:00:45;8.57;;;5.88;;
58071;SDS011;60383;46.626;18.866;2022-12-13T11:03:34;8.45;;;6.07;;
58071;SDS011;60383;46.626;18.866;2022-12-13T11:08:37;8.88;;;6.55;;
58071;SDS011;60383;46.626;18.866;2022-12-13T11:11:03;7.72;;;5.70;;
58071;SDS011;60383;46.626;18.866;2022-12-13T11:13:49;8.30;;;5.90;;
58071;SDS011;60383;46.626;18.866;2022-12-13T11:18:52;8.20;;;5.85;;
58071;SDS011;60383;46.626;18.866;2022-12-13T11:21:24;7.70;;;5.50;;
58071;SDS011;60383;46.626;18.866;2022-12-13T11:23:51;8.13;;;5.72;;
58071;SDS011;60383;46.626;18.866;2022-12-13T11:26:21;8.40;;;6.18;;
58071;SDS011;60383;46.626;18.866;2022-12-13T11:29:14;10.68;;;6.70;;
58071;SDS011;60383;46.626;18.866;2022-12-13T11:40:18;8.68;;;6.00;;
58071;SDS011;60383;46.626;18.866;2022-12-13T11:45:59;8.55;;;6.00;;
58071;SDS011;60383;46.626;18.866;2022-12-13T11:50:34;9.35;;;6.80;;
58071;SDS011;60383;46.626;18.866;2022-12-13T11:53:26;9.67;;;6.87;;
58071;SDS011;60383;46.626;18.866;2022-12-13T11:58:44;8.55;;;6.00;;
58071;SDS011;60383;46.626;18.866;2022-12-13T12:01:28;9.95;;;6.10;;
58071;SDS011;60383;46.626;18.866;2022-12-13T12:06:44;9.25;;;6.47;;
58071;SDS011;60383;46.626;18.866;2022-12-13T12:09:22;9.23;;;6.82;;
58071;SDS011;60383;46.626;18.866;2022-12-13T12:11:54;10.13;;;7.18;;
58071;SDS011;60383;46.626;18.866;2022-12-13T12:14:38;49.78;;;17.48;;
58071;SDS011;60383;46.626;18.866;2022-12-13T12:17:14;14.88;;;8.60;;
58071;SDS011;60383;46.626;18.866;2022-12-13T12:19:43;11.25;;;6.75;;
58071;SDS011;60383;46.626;18.866;2022-12-13T12:22:14;9.75;;;7.25;;
58071;SDS011;60383;46.626;18.866;2022-12-13T12:30:06;13.05;;;8.25;;
58071;SDS011;60383;46.626;18.866;2022-12-13T12:32:39;10.73;;;7.60;;
58071;SDS011;60383;46.626;18.866;2022-12-13T12:46:05;32.10;;;14.13;;
58071;SDS011;60383;46.626;18.866;2022-12-13T12:54:31;13.30;;;8.80;;
58071;SDS011;60383;46.626;18.866;2022-12-13T13:00:04;12.98;;;7.78;;
58071;SDS011;60383;46.626;18.866;2022-12-13T13:06:07;22.33;;;10.25;;
58071;SDS011;60383;46.626;18.866;2022-12-13T13:08:58;13.13;;;8.25;;
58071;SDS011;60383;46.626;18.866;2022-12-13T13:11:28;26.50;;;12.52;;
58071;SDS011;60383;46.626;18.866;2022-12-13T13:18:55;41.15;;;16.85;;
58071;SDS011;60383;46.626;18.866;2022-12-13T13:23:48;10.00;;;7.07;;
58071;SDS011;60383;46.626;18.866;2022-12-13T13:26:40;12.23;;;7.47;;
58071;SDS011;60383;46.626;18.866;2022-12-13T13:31:58;10.18;;;6.22;;
58071;SDS011;60383;46.626;18.866;2022-12-13T13:34:47;9.68;;;6.97;;
58071;SDS011;60383;46.626;18.866;2022-12-13T13:39:59;10.98;;;6.90;;
58071;SDS011;60383;46.626;18.866;2022-12-13T13:42:29;10.10;;;7.38;;
58071;SDS011;60383;46.626;18.866;2022-12-13T13:50:58;12.15;;;8.05;;
58071;SDS011;60383;46.626;18.866;2022-12-13T13:53:37;11.32;;;7.43;;
58071;SDS011;60383;46.626;18.866;2022-12-13T13:56:11;12.52;;;7.32;;
58071;SDS011;60383;46.626;18.866;2022-12-13T14:10:04;11.30;;;7.15;;
58071;SDS011;60383;46.626;18.866;2022-12-13T14:26:41;11.38;;;7.60;;
58071;SDS011;60383;46.626;18.866;2022-12-13T14:29:30;11.48;;;7.63;;
58071;SDS011;60383;46.626;18.866;2022-12-13T14:32:03;18.02;;;9.40;;
58071;SDS011;60383;46.626;18.866;2022-12-13T14:34:34;13.05;;;7.85;;
58071;SDS011;60383;46.626;18.866;2022-12-13T14:37:04;11.30;;;7.85;;
58071;SDS011;60383;46.626;18.866;2022-12-13T14:39:44;11.02;;;7.60;;
58071;SDS011;60383;46.626;18.866;2022-12-13T14:42:22;11.32;;;7.38;;
58071;SDS011;60383;46.626;18.866;2022-12-13T14:44:50;12.10;;;8.15;;
58071;SDS011;60383;46.626;18.866;2022-12-13T14:47:16;10.32;;;7.13;;
58071;SDS011;60383;46.626;18.866;2022-12-13T14:49:42;11.55;;;7.75;;
58071;SDS011;60383;46.626;18.866;2022-12-13T14:54:58;11.55;;;7.80;;
58071;SDS011;60383;46.626;18.866;2022-12-13T14:57:26;12.77;;;8.02;;
58071;SDS011;60383;46.626;18.866;2022-12-13T14:59:55;14.80;;;8.65;;
58071;SDS011;60383;46.626;18.866;2022-12-13T15:02:23;11.90;;;8.02;;
58071;SDS011;60383;46.626;18.866;2022-12-13T15:04:54;12.68;;;8.00;;
58071;SDS011;60383;46.626;18.866;2022-12-13T15:10:21;12.65;;;8.55;;
58071;SDS011;60383;46.626;18.866;2022-12-13T15:12:49;12.60;;;8.40;;
58071;SDS011;60383;46.626;18.866;2022-12-13T15:15:32;13.18;;;8.25;;
58071;SDS011;60383;46.626;18.866;2022-12-13T15:18:19;13.18;;;9.07;;
58071;SDS011;60383;46.626;18.866;2022-12-13T15:20:50;12.95;;;8.65;;
58071;SDS011;60383;46.626;18.866;2022-12-13T15:25:45;13.38;;;8.90;;
58071;SDS011;60383;46.626;18.866;2022-12-13T15:28:16;15.02;;;9.98;;
58071;SDS011;60383;46.626;18.866;2022-12-13T15:30:42;15.20;;;9.88;;
58071;SDS011;60383;46.626;18.866;2022-12-13T15:35:46;21.20;;;12.88;;
58071;SDS011;60383;46.626;18.866;2022-12-13T15:38:16;22.17;;;13.07;;
58071;SDS011;60383;46.626;18.866;2022-12-13T15:40:48;27.63;;;15.67;;
58071;SDS011;60383;46.626;18.866;2022-12-13T15:43:14;27.23;;;15.77;;
58071;SDS011;60383;46.626;18.866;2022-12-13T15:45:43;27.88;;;17.30;;
58071;SDS011;60383;46.626;18.866;2022-12-13T15:48:30;30.80;;;19.33;;
58071;SDS011;60383;46.626;18.866;2022-12-13T15:51:14;41.25;;;23.00;;
58071;SDS011;60383;46.626;18.866;2022-12-13T15:56:36;49.30;;;27.92;;
58071;SDS011;60383;46.626;18.866;2022-12-13T15:59:20;45.50;;;26.95;;
58071;SDS011;60383;46.626;18.866;2022-12-13T16:02:21;57.42;;;36.10;;
58071;SDS011;60383;46.626;18.866;2022-12-13T16:04:49;57.92;;;37.22;;
58071;SDS011;60383;46.626;18.866;2022-12-13T16:07:26;55.10;;;34.97;;
58071;SDS011;60383;46.626;18.866;2022-12-13T16:09:56;47.28;;;28.38;;
58071;SDS011;60383;46.626;18.866;2022-12-13T16:12:28;45.90;;;27.08;;
58071;SDS011;60383;46.626;18.866;2022-12-13T16:15:21;49.58;;;30.20;;
58071;SDS011;60383;46.626;18.866;2022-12-13T16:17:51;42.97;;;27.30;;
58071;SDS011;60383;46.626;18.866;2022-12-13T16:20:18;41.58;;;24.88;;
58071;SDS011;60383;46.626;18.866;2022-12-13T16:22:45;36.47;;;23.50;;
58071;SDS011;60383;46.626;18.866;2022-12-13T16:25:12;37.78;;;24.90;;
58071;SDS011;60383;46.626;18.866;2022-12-13T16:27:39;39.88;;;25.55;;
58071;SDS011;60383;46.626;18.866;2022-12-13T16:30:10;46.22;;;30.17;;
58071;SDS011;60383;46.626;18.866;2022-12-13T16:32:36;48.42;;;31.08;;
58071;SDS011;60383;46.626;18.866;2022-12-13T16:35:02;43.58;;;26.20;;
58071;SDS011;60383;46.626;18.866;2022-12-13T16:37:27;34.40;;;21.20;;
58071;SDS011;60383;46.626;18.866;2022-12-13T16:39:53;23.50;;;15.02;;
58071;SDS011;60383;46.626;18.866;2022-12-13T16:42:18;20.17;;;11.27;;
58071;SDS011;60383;46.626;18.866;2022-12-13T16:44:44;16.50;;;9.95;;
58071;SDS011;60383;46.626;18.866;2022-12-13T16:47:11;17.08;;;10.50;;
58071;SDS011;60383;46.626;18.866;2022-12-13T16:49:37;14.98;;;9.43;;
58071;SDS011;60383;46.626;18.866;2022-12-13T16:52:03;14.75;;;8.68;;
58071;SDS011;60383;46.626;18.866;2022-12-13T16:54:31;14.88;;;9.57;;
58071;SDS011;60383;46.626;18.866;2022-12-13T16:56:57;16.42;;;9.45;;
58071;SDS011;60383;46.626;18.866;2022-12-13T16:59:24;14.13;;;9.48;;
58071;SDS011;60383;46.626;18.866;2022-12-13T17:01:52;16.73;;;9.65;;
58071;SDS011;60383;46.626;18.866;2022-12-13T17:04:20;15.50;;;10.40;;